sensor_id;sensor_type;location;lat;lon;timestamp;P1;durP1;ratioP1;P2;durP2;ratioP2
33672;SDS011;20011;51.510;9.942;2023-03-22T00:01:17;17.73;;;11.40;;
33672;SDS011;20011;51.510;9.942;2023-03-22T00:03:46;19.02;;;11.38;;
33672;SDS011;20011;51.510;9.942;2023-03-22T00:06:14;21.10;;;11.63;;
33672;SDS011;20011;51.510;9.942;2023-03-22T00:08:42;24.25;;;12.00;;
33672;SDS011;20011;51.510;9.942;2023-03-22T00:11:10;18.88;;;11.02;;
33672;SDS011;20011;51.510;9.942;2023-03-22T00:13:38;19.35;;;11.65;;
33672;SDS011;20011;51.510;9.942;2023-03-22T00:16:11;18.33;;;10.60;;
33672;SDS011;20011;51.510;9.942;2023-03-22T00:18:39;19.60;;;12.05;;
33672;SDS011;20011;51.510;9.942;2023-03-22T00:21:08;17.05;;;11.27;;
33672;SDS011;20011;51.510;9.942;2023-03-22T00:23:43;18.92;;;11.65;;
33672;SDS011;20011;51.510;9.942;2023-03-22T00:26:11;18.88;;;11.60;;
33672;SDS011;20011;51.510;9.942;2023-03-22T00:28:39;22.02;;;12.00;;
33672;SDS011;20011;51.510;9.942;2023-03-22T00:31:06;22.63;;;11.15;;
33672;SDS011;20011;51.510;9.942;2023-03-22T00:33:34;19.48;;;12.32;;
33672;SDS011;20011;51.510;9.942;2023-03-22T00:36:06;19.05;;;11.55;;
33672;SDS011;20011;51.510;9.942;2023-03-22T00:38:34;20.45;;;11.75;;
33672;SDS011;20011;51.510;9.942;2023-03-22T00:41:13;20.20;;;11.27;;
33672;SDS011;20011;51.510;9.942;2023-03-22T00:43:43;17.23;;;10.90;;
33672;SDS011;20011;51.510;9.942;2023-03-22T00:46:11;16.55;;;10.57;;
33672;SDS011;20011;51.510;9.942;2023-03-22T00:48:39;19.38;;;12.45;;
33672;SDS011;20011;51.510;9.942;2023-03-22T00:51:07;16.20;;;10.45;;
33672;SDS011;20011;51.510;9.942;2023-03-22T00:53:36;17.77;;;10.45;;
33672;SDS011;20011;51.510;9.942;2023-03-22T00:56:07;14.98;;;10.57;;
33672;SDS011;20011;51.510;9.942;2023-03-22T00:58:46;19.90;;;11.93;;
33672;SDS011;20011;51.510;9.942;2023-03-22T01:01:13;14.05;;;10.30;;
33672;SDS011;20011;51.510;9.942;2023-03-22T01:03:41;18.80;;;10.88;;
33672;SDS011;20011;51.510;9.942;2023-03-22T01:06:12;19.75;;;11.07;;
33672;SDS011;20011;51.510;9.942;2023-03-22T01:08:39;22.30;;;10.85;;
33672;SDS011;20011;51.510;9.942;2023-03-22T01:11:07;17.30;;;10.35;;
33672;SDS011;20011;51.510;9.942;2023-03-22T01:13:35;19.48;;;11.23;;
33672;SDS011;20011;51.510;9.942;2023-03-22T01:16:04;20.85;;;11.40;;
33672;SDS011;20011;51.510;9.942;2023-03-22T01:18:32;17.40;;;11.68;;
33672;SDS011;20011;51.510;9.942;2023-03-22T01:21:00;17.58;;;11.05;;
33672;SDS011;20011;51.510;9.942;2023-03-22T01:23:28;18.83;;;11.50;;
33672;SDS011;20011;51.510;9.942;2023-03-22T01:25:55;24.90;;;11.98;;
33672;SDS011;20011;51.510;9.942;2023-03-22T01:28:22;14.88;;;9.82;;
33672;SDS011;20011;51.510;9.942;2023-03-22T01:30:52;19.27;;;11.57;;
33672;SDS011;20011;51.510;9.942;2023-03-22T01:33:20;20.05;;;10.93;;
33672;SDS011;20011;51.510;9.942;2023-03-22T01:35:48;15.57;;;10.07;;
33672;SDS011;20011;51.510;9.942;2023-03-22T01:38:15;16.55;;;10.80;;
33672;SDS011;20011;51.510;9.942;2023-03-22T01:40:51;17.48;;;11.10;;
33672;SDS011;20011;51.510;9.942;2023-03-22T01:43:18;17.98;;;10.15;;
33672;SDS011;20011;51.510;9.942;2023-03-22T01:45:47;20.27;;;11.23;;
33672;SDS011;20011;51.510;9.942;2023-03-22T01:48:18;23.25;;;12.25;;
33672;SDS011;20011;51.510;9.942;2023-03-22T01:53:55;21.60;;;11.80;;
33672;SDS011;20011;51.510;9.942;2023-03-22T01:56:27;21.00;;;11.20;;
33672;SDS011;20011;51.510;9.942;2023-03-22T01:58:58;18.60;;;10.75;;
33672;SDS011;20011;51.510;9.942;2023-03-22T02:01:36;18.33;;;12.15;;
33672;SDS011;20011;51.510;9.942;2023-03-22T02:04:12;18.67;;;10.88;;
33672;SDS011;20011;51.510;9.942;2023-03-22T02:06:46;20.80;;;11.70;;
33672;SDS011;20011;51.510;9.942;2023-03-22T02:09:16;19.65;;;11.15;;
33672;SDS011;20011;51.510;9.942;2023-03-22T02:11:50;18.05;;;11.00;;
33672;SDS011;20011;51.510;9.942;2023-03-22T02:17:51;16.20;;;10.35;;
33672;SDS011;20011;51.510;9.942;2023-03-22T02:24:00;20.67;;;11.27;;
33672;SDS011;20011;51.510;9.942;2023-03-22T02:26:51;21.92;;;11.00;;
33672;SDS011;20011;51.510;9.942;2023-03-22T02:40:54;19.52;;;11.07;;
33672;SDS011;20011;51.510;9.942;2023-03-22T02:46:53;17.38;;;10.60;;
33672;SDS011;20011;51.510;9.942;2023-03-22T02:49:28;17.48;;;10.95;;
33672;SDS011;20011;51.510;9.942;2023-03-22T02:52:16;16.50;;;11.52;;
33672;SDS011;20011;51.510;9.942;2023-03-22T02:55:01;20.77;;;11.50;;
33672;SDS011;20011;51.510;9.942;2023-03-22T03:00:20;16.98;;;10.20;;
33672;SDS011;20011;51.510;9.942;2023-03-22T03:02:53;18.38;;;11.25;;
33672;SDS011;20011;51.510;9.942;2023-03-22T03:05:23;19.73;;;10.13;;
33672;SDS011;20011;51.510;9.942;2023-03-22T03:07:53;17.95;;;10.10;;
33672;SDS011;20011;51.510;9.942;2023-03-22T03:10:26;16.83;;;10.75;;
33672;SDS011;20011;51.510;9.942;2023-03-22T03:12:53;22.58;;;11.13;;
33672;SDS011;20011;51.510;9.942;2023-03-22T03:15:20;14.75;;;10.13;;
33672;SDS011;20011;51.510;9.942;2023-03-22T03:17:54;16.83;;;10.70;;
33672;SDS011;20011;51.510;9.942;2023-03-22T03:23:31;20.48;;;10.60;;
33672;SDS011;20011;51.510;9.942;2023-03-22T03:29:04;18.58;;;11.00;;
33672;SDS011;20011;51.510;9.942;2023-03-22T03:31:35;14.98;;;10.18;;
33672;SDS011;20011;51.510;9.942;2023-03-22T03:34:38;18.33;;;10.77;;
33672;SDS011;20011;51.510;9.942;2023-03-22T03:37:16;16.70;;;11.00;;
33672;SDS011;20011;51.510;9.942;2023-03-22T03:39:50;19.08;;;10.60;;
33672;SDS011;20011;51.510;9.942;2023-03-22T03:42:22;18.20;;;10.18;;
33672;SDS011;20011;51.510;9.942;2023-03-22T03:47:20;16.98;;;10.90;;
33672;SDS011;20011;51.510;9.942;2023-03-22T03:49:49;17.98;;;10.30;;
33672;SDS011;20011;51.510;9.942;2023-03-22T03:52:16;15.95;;;10.13;;
33672;SDS011;20011;51.510;9.942;2023-03-22T03:54:44;17.67;;;10.27;;
33672;SDS011;20011;51.510;9.942;2023-03-22T03:57:16;17.73;;;10.98;;
33672;SDS011;20011;51.510;9.942;2023-03-22T03:59:43;19.35;;;11.13;;
33672;SDS011;20011;51.510;9.942;2023-03-22T04:02:22;18.13;;;10.85;;
33672;SDS011;20011;51.510;9.942;2023-03-22T04:04:51;16.48;;;10.50;;
33672;SDS011;20011;51.510;9.942;2023-03-22T04:07:19;20.60;;;10.60;;
33672;SDS011;20011;51.510;9.942;2023-03-22T04:09:46;17.52;;;10.52;;
33672;SDS011;20011;51.510;9.942;2023-03-22T04:12:18;18.23;;;11.18;;
33672;SDS011;20011;51.510;9.942;2023-03-22T04:15:05;15.93;;;9.98;;
33672;SDS011;20011;51.510;9.942;2023-03-22T04:17:33;18.48;;;9.95;;
33672;SDS011;20011;51.510;9.942;2023-03-22T04:20:00;19.13;;;10.07;;
33672;SDS011;20011;51.510;9.942;2023-03-22T04:22:32;22.08;;;11.05;;
33672;SDS011;20011;51.510;9.942;2023-03-22T04:25:00;17.83;;;9.43;;
33672;SDS011;20011;51.510;9.942;2023-03-22T04:27:27;18.17;;;10.85;;
33672;SDS011;20011;51.510;9.942;2023-03-22T04:30:00;16.40;;;10.52;;
33672;SDS011;20011;51.510;9.942;2023-03-22T04:32:48;17.92;;;11.68;;
33672;SDS011;20011;51.510;9.942;2023-03-22T04:35:20;20.50;;;11.20;;
33672;SDS011;20011;51.510;9.942;2023-03-22T04:37:48;15.80;;;9.65;;
33672;SDS011;20011;51.510;9.942;2023-03-22T04:40:18;15.23;;;10.32;;
33672;SDS011;20011;51.510;9.942;2023-03-22T04:42:57;18.10;;;11.15;;
33672;SDS011;20011;51.510;9.942;2023-03-22T04:45:54;22.33;;;10.80;;
33672;SDS011;20011;51.510;9.942;2023-03-22T04:48:30;18.05;;;10.90;;
33672;SDS011;20011;51.510;9.942;2023-03-22T04:51:00;17.08;;;9.35;;
33672;SDS011;20011;51.510;9.942;2023-03-22T04:53:35;18.60;;;11.82;;
33672;SDS011;20011;51.510;9.942;2023-03-22T04:56:11;18.48;;;10.98;;
33672;SDS011;20011;51.510;9.942;2023-03-22T04:58:41;15.35;;;10.02;;
33672;SDS011;20011;51.510;9.942;2023-03-22T05:01:09;17.85;;;10.73;;
33672;SDS011;20011;51.510;9.942;2023-03-22T05:03:41;14.75;;;10.20;;
33672;SDS011;20011;51.510;9.942;2023-03-22T05:06:11;14.68;;;9.77;;
33672;SDS011;20011;51.510;9.942;2023-03-22T05:08:47;19.65;;;10.60;;
33672;SDS011;20011;51.510;9.942;2023-03-22T05:11:15;18.55;;;10.65;;
33672;SDS011;20011;51.510;9.942;2023-03-22T05:13:55;17.00;;;10.73;;
33672;SDS011;20011;51.510;9.942;2023-03-22T05:16:25;26.05;;;11.98;;
33672;SDS011;20011;51.510;9.942;2023-03-22T05:18:52;18.08;;;10.57;;
33672;SDS011;20011;51.510;9.942;2023-03-22T05:21:21;19.95;;;11.13;;
33672;SDS011;20011;51.510;9.942;2023-03-22T05:23:56;17.50;;;10.45;;
33672;SDS011;20011;51.510;9.942;2023-03-22T05:26:24;21.83;;;10.82;;
33672;SDS011;20011;51.510;9.942;2023-03-22T05:28:53;22.73;;;12.05;;
33672;SDS011;20011;51.510;9.942;2023-03-22T05:31:39;14.57;;;10.38;;
33672;SDS011;20011;51.510;9.942;2023-03-22T05:34:06;21.80;;;11.40;;
33672;SDS011;20011;51.510;9.942;2023-03-22T05:36:36;19.38;;;12.10;;
33672;SDS011;20011;51.510;9.942;2023-03-22T05:39:23;19.60;;;11.77;;
33672;SDS011;20011;51.510;9.942;2023-03-22T05:41:51;23.00;;;11.02;;
33672;SDS011;20011;51.510;9.942;2023-03-22T05:44:18;20.55;;;12.07;;
33672;SDS011;20011;51.510;9.942;2023-03-22T05:46:55;19.40;;;11.07;;
33672;SDS011;20011;51.510;9.942;2023-03-22T05:49:35;22.37;;;12.03;;
33672;SDS011;20011;51.510;9.942;2023-03-22T05:52:02;22.13;;;12.63;;
33672;SDS011;20011;51.510;9.942;2023-03-22T05:54:55;19.17;;;10.95;;
33672;SDS011;20011;51.510;9.942;2023-03-22T05:57:22;21.83;;;12.20;;
33672;SDS011;20011;51.510;9.942;2023-03-22T05:59:50;21.65;;;10.73;;
33672;SDS011;20011;51.510;9.942;2023-03-22T06:02:24;20.50;;;12.30;;
33672;SDS011;20011;51.510;9.942;2023-03-22T06:04:51;21.48;;;12.25;;
33672;SDS011;20011;51.510;9.942;2023-03-22T06:07:19;17.75;;;11.15;;
33672;SDS011;20011;51.510;9.942;2023-03-22T06:09:51;18.20;;;11.38;;
33672;SDS011;20011;51.510;9.942;2023-03-22T06:12:22;23.30;;;12.13;;
33672;SDS011;20011;51.510;9.942;2023-03-22T06:15:09;28.00;;;12.60;;
33672;SDS011;20011;51.510;9.942;2023-03-22T06:17:46;20.73;;;11.38;;
33672;SDS011;20011;51.510;9.942;2023-03-22T06:20:19;21.48;;;12.45;;
33672;SDS011;20011;51.510;9.942;2023-03-22T06:22:52;24.23;;;11.93;;
33672;SDS011;20011;51.510;9.942;2023-03-22T06:25:19;23.77;;;12.68;;
33672;SDS011;20011;51.510;9.942;2023-03-22T06:27:47;19.17;;;12.68;;
33672;SDS011;20011;51.510;9.942;2023-03-22T06:30:14;22.85;;;12.77;;
33672;SDS011;20011;51.510;9.942;2023-03-22T06:33:02;20.42;;;12.65;;
33672;SDS011;20011;51.510;9.942;2023-03-22T06:35:33;20.83;;;12.13;;
33672;SDS011;20011;51.510;9.942;2023-03-22T06:38:02;20.35;;;12.07;;
33672;SDS011;20011;51.510;9.942;2023-03-22T06:40:30;22.67;;;12.57;;
33672;SDS011;20011;51.510;9.942;2023-03-22T06:42:57;31.60;;;12.95;;
33672;SDS011;20011;51.510;9.942;2023-03-22T06:45:31;20.27;;;12.93;;
33672;SDS011;20011;51.510;9.942;2023-03-22T06:48:00;20.58;;;12.80;;
33672;SDS011;20011;51.510;9.942;2023-03-22T06:50:42;20.27;;;13.18;;
33672;SDS011;20011;51.510;9.942;2023-03-22T06:53:13;22.10;;;12.00;;
33672;SDS011;20011;51.510;9.942;2023-03-22T06:55:40;19.48;;;12.27;;
33672;SDS011;20011;51.510;9.942;2023-03-22T06:58:14;18.83;;;12.88;;
33672;SDS011;20011;51.510;9.942;2023-03-22T07:00:42;24.17;;;13.80;;
33672;SDS011;20011;51.510;9.942;2023-03-22T07:03:09;20.77;;;12.15;;
33672;SDS011;20011;51.510;9.942;2023-03-22T07:05:45;21.02;;;11.48;;
33672;SDS011;20011;51.510;9.942;2023-03-22T07:08:13;20.80;;;12.90;;
33672;SDS011;20011;51.510;9.942;2023-03-22T07:10:50;19.42;;;11.35;;
33672;SDS011;20011;51.510;9.942;2023-03-22T07:13:20;18.65;;;12.40;;
33672;SDS011;20011;51.510;9.942;2023-03-22T07:15:53;23.75;;;12.38;;
33672;SDS011;20011;51.510;9.942;2023-03-22T07:18:33;24.20;;;12.00;;
33672;SDS011;20011;51.510;9.942;2023-03-22T07:21:00;23.10;;;11.95;;
33672;SDS011;20011;51.510;9.942;2023-03-22T07:23:27;19.58;;;11.63;;
33672;SDS011;20011;51.510;9.942;2023-03-22T07:26:01;21.50;;;13.02;;
33672;SDS011;20011;51.510;9.942;2023-03-22T07:28:31;19.42;;;12.38;;
33672;SDS011;20011;51.510;9.942;2023-03-22T07:31:07;19.20;;;11.15;;
33672;SDS011;20011;51.510;9.942;2023-03-22T07:33:55;19.58;;;11.02;;
33672;SDS011;20011;51.510;9.942;2023-03-22T07:36:25;22.20;;;10.82;;
33672;SDS011;20011;51.510;9.942;2023-03-22T07:38:53;18.52;;;9.70;;
33672;SDS011;20011;51.510;9.942;2023-03-22T07:41:27;17.90;;;10.02;;
33672;SDS011;20011;51.510;9.942;2023-03-22T07:44:14;15.38;;;8.45;;
33672;SDS011;20011;51.510;9.942;2023-03-22T07:46:59;17.35;;;9.27;;
33672;SDS011;20011;51.510;9.942;2023-03-22T07:49:34;15.48;;;8.70;;
33672;SDS011;20011;51.510;9.942;2023-03-22T07:52:06;12.90;;;7.70;;
33672;SDS011;20011;51.510;9.942;2023-03-22T07:54:33;11.85;;;7.40;;
33672;SDS011;20011;51.510;9.942;2023-03-22T07:57:04;12.93;;;7.32;;
33672;SDS011;20011;51.510;9.942;2023-03-22T07:59:36;14.07;;;7.38;;
33672;SDS011;20011;51.510;9.942;2023-03-22T08:02:08;14.65;;;6.80;;
33672;SDS011;20011;51.510;9.942;2023-03-22T08:04:42;9.90;;;5.88;;
33672;SDS011;20011;51.510;9.942;2023-03-22T08:07:14;4.38;;;3.00;;
33672;SDS011;20011;51.510;9.942;2023-03-22T08:09:45;14.98;;;5.47;;
33672;SDS011;20011;51.510;9.942;2023-03-22T08:12:13;13.43;;;5.78;;
33672;SDS011;20011;51.510;9.942;2023-03-22T08:14:41;7.05;;;4.43;;
33672;SDS011;20011;51.510;9.942;2023-03-22T08:17:16;8.80;;;3.80;;
33672;SDS011;20011;51.510;9.942;2023-03-22T08:19:44;9.20;;;5.18;;
33672;SDS011;20011;51.510;9.942;2023-03-22T08:22:17;10.88;;;5.07;;
33672;SDS011;20011;51.510;9.942;2023-03-22T08:25:03;10.05;;;5.88;;
33672;SDS011;20011;51.510;9.942;2023-03-22T08:27:35;11.27;;;3.92;;
33672;SDS011;20011;51.510;9.942;2023-03-22T08:30:02;8.45;;;4.20;;
33672;SDS011;20011;51.510;9.942;2023-03-22T08:32:31;7.88;;;4.47;;
33672;SDS011;20011;51.510;9.942;2023-03-22T08:35:00;7.22;;;4.55;;
33672;SDS011;20011;51.510;9.942;2023-03-22T08:37:27;6.22;;;3.58;;
33672;SDS011;20011;51.510;9.942;2023-03-22T08:39:54;7.18;;;2.95;;
33672;SDS011;20011;51.510;9.942;2023-03-22T08:42:30;8.60;;;4.50;;
33672;SDS011;20011;51.510;9.942;2023-03-22T08:44:57;7.68;;;4.10;;
33672;SDS011;20011;51.510;9.942;2023-03-22T08:47:26;8.20;;;4.18;;
33672;SDS011;20011;51.510;9.942;2023-03-22T08:49:57;8.43;;;5.03;;
33672;SDS011;20011;51.510;9.942;2023-03-22T08:52:44;13.68;;;4.30;;
33672;SDS011;20011;51.510;9.942;2023-03-22T08:55:21;8.30;;;4.93;;
33672;SDS011;20011;51.510;9.942;2023-03-22T08:58:06;8.07;;;4.47;;
33672;SDS011;20011;51.510;9.942;2023-03-22T09:00:55;9.98;;;4.10;;
33672;SDS011;20011;51.510;9.942;2023-03-22T09:03:28;8.98;;;5.13;;
33672;SDS011;20011;51.510;9.942;2023-03-22T09:05:56;7.25;;;4.45;;
33672;SDS011;20011;51.510;9.942;2023-03-22T09:08:26;7.55;;;4.20;;
33672;SDS011;20011;51.510;9.942;2023-03-22T09:11:02;8.77;;;4.35;;
33672;SDS011;20011;51.510;9.942;2023-03-22T09:13:29;5.57;;;3.75;;
33672;SDS011;20011;51.510;9.942;2023-03-22T09:15:59;10.93;;;4.22;;
33672;SDS011;20011;51.510;9.942;2023-03-22T09:23:49;9.20;;;4.25;;
33672;SDS011;20011;51.510;9.942;2023-03-22T09:26:21;7.35;;;2.70;;
33672;SDS011;20011;51.510;9.942;2023-03-22T09:28:50;5.03;;;3.35;;
33672;SDS011;20011;51.510;9.942;2023-03-22T09:31:17;4.10;;;2.45;;
33672;SDS011;20011;51.510;9.942;2023-03-22T09:33:53;7.60;;;2.88;;
33672;SDS011;20011;51.510;9.942;2023-03-22T09:36:20;5.40;;;3.35;;
33672;SDS011;20011;51.510;9.942;2023-03-22T09:38:47;8.20;;;3.60;;
33672;SDS011;20011;51.510;9.942;2023-03-22T09:41:50;6.80;;;3.33;;
33672;SDS011;20011;51.510;9.942;2023-03-22T09:44:14;10.00;;;3.20;;
33672;SDS011;20011;51.510;9.942;2023-03-22T09:46:51;5.68;;;2.80;;
33672;SDS011;20011;51.510;9.942;2023-03-22T09:49:23;3.60;;;2.30;;
33672;SDS011;20011;51.510;9.942;2023-03-22T09:51:54;4.40;;;2.13;;
33672;SDS011;20011;51.510;9.942;2023-03-22T09:54:34;7.63;;;2.65;;
33672;SDS011;20011;51.510;9.942;2023-03-22T09:57:06;5.88;;;2.58;;
33672;SDS011;20011;51.510;9.942;2023-03-22T09:59:51;12.32;;;2.83;;
33672;SDS011;20011;51.510;9.942;2023-03-22T10:05:25;6.18;;;3.15;;
33672;SDS011;20011;51.510;9.942;2023-03-22T10:10:39;8.10;;;2.50;;
33672;SDS011;20011;51.510;9.942;2023-03-22T10:15:47;4.07;;;2.60;;
33672;SDS011;20011;51.510;9.942;2023-03-22T10:18:24;4.47;;;2.42;;
33672;SDS011;20011;51.510;9.942;2023-03-22T10:23:40;8.35;;;2.90;;
33672;SDS011;20011;51.510;9.942;2023-03-22T10:26:20;11.77;;;2.95;;
33672;SDS011;20011;51.510;9.942;2023-03-22T10:28:59;3.72;;;2.10;;
33672;SDS011;20011;51.510;9.942;2023-03-22T10:31:29;5.30;;;2.70;;
33672;SDS011;20011;51.510;9.942;2023-03-22T10:34:09;5.43;;;2.22;;
33672;SDS011;20011;51.510;9.942;2023-03-22T10:36:39;4.47;;;1.98;;
33672;SDS011;20011;51.510;9.942;2023-03-22T10:39:11;5.30;;;2.60;;
33672;SDS011;20011;51.510;9.942;2023-03-22T10:41:44;5.50;;;2.20;;
33672;SDS011;20011;51.510;9.942;2023-03-22T10:44:14;4.63;;;2.42;;
33672;SDS011;20011;51.510;9.942;2023-03-22T10:46:44;6.07;;;2.03;;
33672;SDS011;20011;51.510;9.942;2023-03-22T10:49:17;6.00;;;2.30;;
33672;SDS011;20011;51.510;9.942;2023-03-22T10:51:53;5.75;;;2.40;;
33672;SDS011;20011;51.510;9.942;2023-03-22T10:54:23;3.35;;;2.20;;
33672;SDS011;20011;51.510;9.942;2023-03-22T10:56:52;8.32;;;2.42;;
33672;SDS011;20011;51.510;9.942;2023-03-22T11:00:03;6.57;;;2.47;;
33672;SDS011;20011;51.510;9.942;2023-03-22T11:02:16;6.60;;;2.28;;
33672;SDS011;20011;51.510;9.942;2023-03-22T11:04:55;2.90;;;2.22;;
33672;SDS011;20011;51.510;9.942;2023-03-22T11:07:32;8.30;;;3.17;;
33672;SDS011;20011;51.510;9.942;2023-03-22T11:12:35;7.53;;;2.88;;
33672;SDS011;20011;51.510;9.942;2023-03-22T11:15:09;4.07;;;2.42;;
33672;SDS011;20011;51.510;9.942;2023-03-22T11:17:50;9.13;;;2.72;;
33672;SDS011;20011;51.510;9.942;2023-03-22T11:20:20;4.82;;;2.80;;
33672;SDS011;20011;51.510;9.942;2023-03-22T11:22:48;3.30;;;2.65;;
33672;SDS011;20011;51.510;9.942;2023-03-22T11:25:20;11.18;;;2.83;;
33672;SDS011;20011;51.510;9.942;2023-03-22T11:27:53;4.70;;;2.78;;
33672;SDS011;20011;51.510;9.942;2023-03-22T11:30:24;4.15;;;2.70;;
33672;SDS011;20011;51.510;9.942;2023-03-22T11:35:35;4.53;;;2.00;;
33672;SDS011;20011;51.510;9.942;2023-03-22T11:38:04;3.63;;;2.47;;
33672;SDS011;20011;51.510;9.942;2023-03-22T11:40:34;4.47;;;2.70;;
33672;SDS011;20011;51.510;9.942;2023-03-22T11:43:10;6.10;;;3.13;;
33672;SDS011;20011;51.510;9.942;2023-03-22T11:45:47;4.28;;;2.60;;
33672;SDS011;20011;51.510;9.942;2023-03-22T11:48:22;5.50;;;2.40;;
33672;SDS011;20011;51.510;9.942;2023-03-22T11:50:53;5.68;;;2.40;;
33672;SDS011;20011;51.510;9.942;2023-03-22T11:53:28;9.20;;;2.50;;
33672;SDS011;20011;51.510;9.942;2023-03-22T11:56:00;8.05;;;3.35;;
33672;SDS011;20011;51.510;9.942;2023-03-22T12:01:22;7.88;;;2.70;;
33672;SDS011;20011;51.510;9.942;2023-03-22T12:03:58;16.52;;;3.20;;
33672;SDS011;20011;51.510;9.942;2023-03-22T12:06:28;6.68;;;2.63;;
33672;SDS011;20011;51.510;9.942;2023-03-22T12:09:02;4.80;;;2.65;;
33672;SDS011;20011;51.510;9.942;2023-03-22T12:11:48;11.52;;;2.83;;
33672;SDS011;20011;51.510;9.942;2023-03-22T12:14:20;6.25;;;2.83;;
33672;SDS011;20011;51.510;9.942;2023-03-22T12:16:58;6.75;;;2.97;;
33672;SDS011;20011;51.510;9.942;2023-03-22T12:22:28;9.65;;;3.33;;
33672;SDS011;20011;51.510;9.942;2023-03-22T12:24:58;7.95;;;3.35;;
33672;SDS011;20011;51.510;9.942;2023-03-22T12:27:31;6.85;;;3.40;;
33672;SDS011;20011;51.510;9.942;2023-03-22T12:30:04;7.53;;;3.13;;
33672;SDS011;20011;51.510;9.942;2023-03-22T12:32:37;7.10;;;3.40;;
33672;SDS011;20011;51.510;9.942;2023-03-22T12:35:15;5.70;;;3.25;;
33672;SDS011;20011;51.510;9.942;2023-03-22T12:37:47;5.88;;;3.08;;
33672;SDS011;20011;51.510;9.942;2023-03-22T12:43:26;7.22;;;3.35;;
33672;SDS011;20011;51.510;9.942;2023-03-22T12:45:59;7.35;;;2.75;;
33672;SDS011;20011;51.510;9.942;2023-03-22T12:48:37;7.30;;;2.63;;
33672;SDS011;20011;51.510;9.942;2023-03-22T12:51:12;6.22;;;3.22;;
33672;SDS011;20011;51.510;9.942;2023-03-22T12:53:47;5.85;;;2.58;;
33672;SDS011;20011;51.510;9.942;2023-03-22T12:56:17;6.97;;;3.30;;
33672;SDS011;20011;51.510;9.942;2023-03-22T12:58:55;6.20;;;2.63;;
33672;SDS011;20011;51.510;9.942;2023-03-22T13:01:43;4.40;;;2.65;;
33672;SDS011;20011;51.510;9.942;2023-03-22T13:07:15;7.22;;;3.20;;
33672;SDS011;20011;51.510;9.942;2023-03-22T13:21:09;5.80;;;1.95;;
33672;SDS011;20011;51.510;9.942;2023-03-22T13:24:25;3.00;;;1.90;;
33672;SDS011;20011;51.510;9.942;2023-03-22T13:29:19;4.20;;;1.50;;
33672;SDS011;20011;51.510;9.942;2023-03-22T13:34:18;7.68;;;1.83;;
33672;SDS011;20011;51.510;9.942;2023-03-22T13:36:56;4.77;;;1.40;;
33672;SDS011;20011;51.510;9.942;2023-03-22T13:39:24;3.83;;;1.67;;
33672;SDS011;20011;51.510;9.942;2023-03-22T13:42:34;5.57;;;2.38;;
33672;SDS011;20011;51.510;9.942;2023-03-22T13:45:04;6.57;;;2.83;;
33672;SDS011;20011;51.510;9.942;2023-03-22T13:50:08;3.42;;;2.05;;
33672;SDS011;20011;51.510;9.942;2023-03-22T13:52:38;7.18;;;2.42;;
33672;SDS011;20011;51.510;9.942;2023-03-22T13:59:00;3.28;;;1.35;;
33672;SDS011;20011;51.510;9.942;2023-03-22T14:01:29;5.03;;;1.92;;
33672;SDS011;20011;51.510;9.942;2023-03-22T14:04:06;4.35;;;1.77;;
33672;SDS011;20011;51.510;9.942;2023-03-22T14:06:42;1.92;;;1.45;;
33672;SDS011;20011;51.510;9.942;2023-03-22T14:09:29;6.85;;;1.50;;
33672;SDS011;20011;51.510;9.942;2023-03-22T14:14:41;9.50;;;1.48;;
33672;SDS011;20011;51.510;9.942;2023-03-22T14:17:36;4.00;;;1.58;;
33672;SDS011;20011;51.510;9.942;2023-03-22T14:20:03;4.97;;;2.15;;
33672;SDS011;20011;51.510;9.942;2023-03-22T14:22:43;3.80;;;1.85;;
33672;SDS011;20011;51.510;9.942;2023-03-22T14:25:20;7.05;;;1.75;;
33672;SDS011;20011;51.510;9.942;2023-03-22T14:27:49;5.72;;;1.70;;
33672;SDS011;20011;51.510;9.942;2023-03-22T14:30:28;2.53;;;1.27;;
33672;SDS011;20011;51.510;9.942;2023-03-22T14:33:03;3.97;;;1.40;;
33672;SDS011;20011;51.510;9.942;2023-03-22T14:35:36;5.20;;;1.80;;
33672;SDS011;20011;51.510;9.942;2023-03-22T14:38:05;3.25;;;1.30;;
33672;SDS011;20011;51.510;9.942;2023-03-22T14:40:38;5.20;;;1.33;;
33672;SDS011;20011;51.510;9.942;2023-03-22T14:43:11;2.58;;;1.30;;
33672;SDS011;20011;51.510;9.942;2023-03-22T14:45:46;1.77;;;1.33;;
33672;SDS011;20011;51.510;9.942;2023-03-22T14:48:18;3.88;;;1.45;;
33672;SDS011;20011;51.510;9.942;2023-03-22T14:50:48;3.67;;;1.20;;
33672;SDS011;20011;51.510;9.942;2023-03-22T14:53:17;4.63;;;1.20;;
33672;SDS011;20011;51.510;9.942;2023-03-22T14:55:48;1.35;;;1.15;;
33672;SDS011;20011;51.510;9.942;2023-03-22T14:58:16;3.00;;;1.40;;
33672;SDS011;20011;51.510;9.942;2023-03-22T15:00:43;7.20;;;1.35;;
33672;SDS011;20011;51.510;9.942;2023-03-22T15:03:12;3.00;;;1.50;;
33672;SDS011;20011;51.510;9.942;2023-03-22T15:05:48;3.17;;;1.05;;
33672;SDS011;20011;51.510;9.942;2023-03-22T15:10:43;2.95;;;1.38;;
33672;SDS011;20011;51.510;9.942;2023-03-22T15:13:13;4.75;;;1.20;;
33672;SDS011;20011;51.510;9.942;2023-03-22T15:15:40;2.42;;;1.38;;
33672;SDS011;20011;51.510;9.942;2023-03-22T15:18:12;7.40;;;1.20;;
33672;SDS011;20011;51.510;9.942;2023-03-22T15:20:41;1.45;;;1.20;;
33672;SDS011;20011;51.510;9.942;2023-03-22T15:23:13;3.28;;;1.10;;
33672;SDS011;20011;51.510;9.942;2023-03-22T15:25:40;4.00;;;1.05;;
33672;SDS011;20011;51.510;9.942;2023-03-22T15:28:17;5.22;;;1.63;;
33672;SDS011;20011;51.510;9.942;2023-03-22T15:30:46;4.13;;;1.52;;
33672;SDS011;20011;51.510;9.942;2023-03-22T15:33:24;3.30;;;1.23;;
33672;SDS011;20011;51.510;9.942;2023-03-22T15:35:56;2.95;;;1.42;;
33672;SDS011;20011;51.510;9.942;2023-03-22T15:41:23;5.18;;;1.98;;
33672;SDS011;20011;51.510;9.942;2023-03-22T15:43:57;4.35;;;1.45;;
33672;SDS011;20011;51.510;9.942;2023-03-22T15:46:46;7.00;;;1.58;;
33672;SDS011;20011;51.510;9.942;2023-03-22T15:49:21;1.95;;;1.20;;
33672;SDS011;20011;51.510;9.942;2023-03-22T15:51:55;3.47;;;1.42;;
33672;SDS011;20011;51.510;9.942;2023-03-22T15:54:30;2.08;;;1.17;;
33672;SDS011;20011;51.510;9.942;2023-03-22T15:57:06;3.28;;;1.48;;
33672;SDS011;20011;51.510;9.942;2023-03-22T15:59:49;5.28;;;1.73;;
33672;SDS011;20011;51.510;9.942;2023-03-22T16:02:34;5.43;;;1.63;;
33672;SDS011;20011;51.510;9.942;2023-03-22T16:05:01;8.27;;;1.25;;
33672;SDS011;20011;51.510;9.942;2023-03-22T16:07:35;4.30;;;1.50;;
33672;SDS011;20011;51.510;9.942;2023-03-22T16:10:01;2.85;;;1.35;;
33672;SDS011;20011;51.510;9.942;2023-03-22T16:12:27;8.65;;;1.95;;
33672;SDS011;20011;51.510;9.942;2023-03-22T16:14:52;3.85;;;1.73;;
33672;SDS011;20011;51.510;9.942;2023-03-22T16:17:23;3.97;;;1.77;;
33672;SDS011;20011;51.510;9.942;2023-03-22T16:19:50;6.05;;;1.77;;
33672;SDS011;20011;51.510;9.942;2023-03-22T16:22:18;3.33;;;1.70;;
33672;SDS011;20011;51.510;9.942;2023-03-22T16:24:45;4.85;;;1.80;;
33672;SDS011;20011;51.510;9.942;2023-03-22T16:27:14;6.43;;;1.45;;
33672;SDS011;20011;51.510;9.942;2023-03-22T16:29:42;3.35;;;1.20;;
33672;SDS011;20011;51.510;9.942;2023-03-22T16:32:30;3.08;;;1.67;;
33672;SDS011;20011;51.510;9.942;2023-03-22T16:34:56;1.60;;;1.10;;
33672;SDS011;20011;51.510;9.942;2023-03-22T16:37:23;3.50;;;1.48;;
33672;SDS011;20011;51.510;9.942;2023-03-22T16:39:50;3.10;;;1.30;;
33672;SDS011;20011;51.510;9.942;2023-03-22T16:42:23;2.95;;;1.25;;
33672;SDS011;20011;51.510;9.942;2023-03-22T16:44:50;1.85;;;1.00;;
33672;SDS011;20011;51.510;9.942;2023-03-22T16:47:18;3.30;;;1.45;;
33672;SDS011;20011;51.510;9.942;2023-03-22T16:49:47;3.10;;;0.90;;